createdAt,value
2023-03-02T00:02:04.818Z,30.48
2023-03-02T00:07:06.046Z,31.35
2023-03-02T00:09:36.529Z,33.70
2023-03-02T00:12:05.323Z,38.42
2023-03-02T00:14:33.384Z,41.03
2023-03-02T00:17:02.693Z,43.60
2023-03-02T00:19:30.902Z,43.45
2023-03-02T00:21:58.868Z,43.03
2023-03-02T00:24:26.868Z,43.15
2023-03-02T00:26:56.575Z,47.17
2023-03-02T00:29:24.668Z,50.17
2023-03-02T00:31:52.796Z,50.38
2023-03-02T00:34:20.885Z,51.78
2023-03-02T00:36:49.528Z,54.55
2023-03-02T00:39:20.112Z,60.65
2023-03-02T00:41:49.286Z,64.32
2023-03-02T00:44:18.765Z,62.75
2023-03-02T00:46:47.155Z,60.67
2023-03-02T00:49:15.176Z,63.03
2023-03-02T00:51:43.248Z,65.05
2023-03-02T00:54:11.511Z,59.20
2023-03-02T00:56:39.594Z,60.15
2023-03-02T00:59:18.264Z,65.75
2023-03-02T01:01:58.377Z,67.60
2023-03-02T01:04:29.752Z,74.13
2023-03-02T01:06:58.345Z,74.78
2023-03-02T01:09:26.698Z,69.10
2023-03-02T01:11:55.050Z,65.15
2023-03-02T01:14:23.429Z,71.47
2023-03-02T01:16:52.824Z,72.22
2023-03-02T01:19:20.899Z,74.28
2023-03-02T01:21:49.110Z,73.97
2023-03-02T01:24:17.323Z,78.10
2023-03-02T01:26:45.292Z,73.88
2023-03-02T01:29:13.294Z,76.65
2023-03-02T01:31:42.835Z,75.93
2023-03-02T01:34:12.291Z,71.07
2023-03-02T01:36:40.337Z,75.57
2023-03-02T01:39:08.374Z,73.60
2023-03-02T01:41:36.395Z,75.97
2023-03-02T01:44:04.404Z,77.25
2023-03-02T01:46:35.240Z,79.20
2023-03-02T01:49:06.122Z,80.65
2023-03-02T01:51:44.547Z,77.07
2023-03-02T01:54:17.257Z,82.45
2023-03-02T01:56:47.214Z,75.72
2023-03-02T01:59:19.656Z,75.05
2023-03-02T02:01:52.377Z,71.30
2023-03-02T02:04:22.352Z,79.55
2023-03-02T02:06:56.585Z,73.30
2023-03-02T02:09:26.391Z,79.50
2023-03-02T02:11:54.504Z,66.03
2023-03-02T02:14:23.381Z,65.45
2023-03-02T02:16:52.683Z,71.22
2023-03-02T02:19:35.389Z,64.13
2023-03-02T02:22:04.960Z,61.60
2023-03-02T02:24:38.334Z,60.67
2023-03-02T02:27:07.870Z,67.65
2023-03-02T02:29:39.429Z,65.88
2023-03-02T02:32:14.596Z,58.03
2023-03-02T02:34:47.538Z,62.47
2023-03-02T02:37:20.298Z,65.38
2023-03-02T02:39:50.063Z,67.35
2023-03-02T02:42:23.070Z,72.05
2023-03-02T02:44:52.908Z,71.97
2023-03-02T02:47:23.011Z,68.40
2023-03-02T02:49:54.091Z,69.65
2023-03-02T02:52:24.395Z,72.10
2023-03-02T02:54:54.973Z,74.75
2023-03-02T02:57:29.460Z,69.88
2023-03-02T03:00:00.694Z,78.13
2023-03-02T03:02:31.106Z,74.97
2023-03-02T03:05:03.813Z,85.03
2023-03-02T03:07:33.139Z,79.60
2023-03-02T03:10:08.051Z,77.00
2023-03-02T03:12:39.791Z,82.72
2023-03-02T03:15:09.651Z,82.63
2023-03-02T03:17:37.713Z,83.22
2023-03-02T03:20:08.713Z,86.28
2023-03-02T03:22:37.546Z,89.95
2023-03-02T03:25:06.589Z,85.32
2023-03-02T03:27:34.636Z,93.18
2023-03-02T03:30:04.298Z,91.80
2023-03-02T03:32:35.451Z,87.28
2023-03-02T03:35:03.755Z,83.90
2023-03-02T03:37:31.786Z,92.60
2023-03-02T03:39:59.824Z,91.70
2023-03-02T03:42:28.059Z,84.32
2023-03-02T03:44:56.122Z,86.47
2023-03-02T03:47:25.458Z,84.90
2023-03-02T03:49:53.525Z,86.95
2023-03-02T03:52:30.355Z,84.68
2023-03-02T03:54:59.469Z,93.50
2023-03-02T03:57:28.229Z,90.25
2023-03-02T03:59:56.489Z,91.18
2023-03-02T04:02:26.090Z,83.28
2023-03-02T04:04:54.150Z,96.85
2023-03-02T04:07:22.190Z,92.15
2023-03-02T04:10:03.405Z,87.70
2023-03-02T04:12:32.061Z,84.88
2023-03-02T04:15:00.099Z,86.95
2023-03-02T04:17:29.872Z,86.00
2023-03-02T04:19:58.763Z,87.63
2023-03-02T04:22:26.898Z,92.07
2023-03-02T04:24:55.048Z,84.95
2023-03-02T04:27:23.104Z,86.90
2023-03-02T04:29:53.051Z,88.57
2023-03-02T04:32:21.364Z,84.20
2023-03-02T04:34:50.840Z,83.95
2023-03-02T04:37:18.871Z,82.53
2023-03-02T04:39:51.149Z,79.75
2023-03-02T04:44:47.205Z,90.10
2023-03-02T04:47:15.874Z,83.95
2023-03-02T04:49:43.874Z,79.88
2023-03-02T04:52:13.349Z,85.15
2023-03-02T04:54:41.360Z,79.82
2023-03-02T04:57:09.980Z,80.75
2023-03-02T04:59:38.056Z,80.55
2023-03-02T05:02:07.168Z,79.97
2023-03-02T05:04:35.446Z,75.95
2023-03-02T05:07:03.502Z,75.18
2023-03-02T05:09:32.851Z,73.50
2023-03-02T05:12:02.201Z,82.28
2023-03-02T05:14:30.697Z,76.28
2023-03-02T05:16:59.084Z,81.22
2023-03-02T05:19:27.202Z,69.90
2023-03-02T05:21:56.425Z,69.18
2023-03-02T05:24:24.562Z,69.57
2023-03-02T05:26:53.931Z,66.32
2023-03-02T05:29:22.004Z,65.20
2023-03-02T05:31:50.696Z,69.15
2023-03-02T05:34:19.430Z,75.60
2023-03-02T05:36:47.751Z,68.28
2023-03-02T05:39:15.754Z,71.20
2023-03-02T05:41:43.819Z,69.28
2023-03-02T05:44:13.215Z,63.40
2023-03-02T05:46:41.690Z,70.13
2023-03-02T05:49:10.662Z,65.82
2023-03-02T05:51:38.688Z,68.40
2023-03-02T05:54:06.775Z,70.57
2023-03-02T05:56:35.029Z,70.38
2023-03-02T05:59:03.316Z,77.13
2023-03-02T06:01:33.021Z,71.50
2023-03-02T06:04:01.213Z,67.80
2023-03-02T06:06:29.501Z,69.40
2023-03-02T06:08:57.464Z,69.75
2023-03-02T06:11:25.510Z,74.28
2023-03-02T06:13:53.580Z,70.45
2023-03-02T06:16:21.666Z,65.57
2023-03-02T06:18:51.101Z,66.95
2023-03-02T06:21:19.082Z,67.13
2023-03-02T06:23:47.121Z,66.35
2023-03-02T06:26:15.154Z,72.97
2023-03-02T06:28:52.015Z,63.17
2023-03-02T06:31:21.124Z,75.65
2023-03-02T06:33:50.711Z,67.47
2023-03-02T06:36:18.745Z,68.63
2023-03-02T06:38:47.021Z,71.97
2023-03-02T06:41:15.083Z,71.13
2023-03-02T06:43:43.346Z,73.50
2023-03-02T06:46:11.432Z,74.93
2023-03-02T06:48:39.502Z,70.90
2023-03-02T06:51:09.550Z,71.28
2023-03-02T06:53:37.579Z,69.90
2023-03-02T06:56:06.394Z,70.35
2023-03-02T06:58:34.429Z,72.72
2023-03-02T07:01:02.469Z,69.38
2023-03-02T07:03:30.604Z,72.13
2023-03-02T07:05:58.636Z,73.07
2023-03-02T07:08:28.017Z,62.75
2023-03-02T07:10:56.002Z,67.13
2023-03-02T07:13:24.080Z,66.55
2023-03-02T07:15:52.097Z,73.28
2023-03-02T07:18:20.129Z,68.97
2023-03-02T07:20:48.137Z,66.07
2023-03-02T07:23:16.175Z,60.08
2023-03-02T07:25:45.566Z,67.80
2023-03-02T07:28:13.529Z,66.15
2023-03-02T07:30:41.537Z,62.05
2023-03-02T07:33:09.554Z,64.75
2023-03-02T07:35:37.621Z,64.72
2023-03-02T07:38:05.735Z,66.00
2023-03-02T07:40:34.017Z,60.38
2023-03-02T07:43:03.389Z,56.50
2023-03-02T07:45:31.415Z,60.53
2023-03-02T07:47:59.440Z,60.42
2023-03-02T07:50:27.616Z,64.40
2023-03-02T07:52:55.669Z,56.58
2023-03-02T07:55:23.708Z,57.78
2023-03-02T07:57:51.737Z,58.47
2023-03-02T08:00:22.828Z,58.15
2023-03-02T08:02:50.960Z,58.58
2023-03-02T08:05:19.117Z,60.85
2023-03-02T08:07:48.414Z,58.83
2023-03-02T08:10:16.583Z,60.85
2023-03-02T08:12:44.816Z,55.50
2023-03-02T08:15:13.282Z,50.15
2023-03-02T08:17:42.687Z,52.72
2023-03-02T08:20:11.986Z,47.47
2023-03-02T08:22:40.029Z,51.40
2023-03-02T08:25:08.814Z,50.22
2023-03-02T08:27:37.107Z,50.25
2023-03-02T08:30:06.146Z,50.50
2023-03-02T08:32:34.765Z,49.13
2023-03-02T08:35:04.415Z,49.50
2023-03-02T08:37:32.419Z,42.05
2023-03-02T08:40:00.430Z,50.88
2023-03-02T08:42:28.450Z,44.03
2023-03-02T08:44:56.471Z,45.95
2023-03-02T08:47:24.567Z,40.80
2023-03-02T08:49:52.603Z,44.13
2023-03-02T08:52:22.010Z,40.58
2023-03-02T08:54:50.137Z,38.28
2023-03-02T08:57:19.323Z,37.63
2023-03-02T08:59:49.045Z,36.38
2023-03-02T09:02:17.014Z,36.42
2023-03-02T09:04:45.239Z,32.45
2023-03-02T09:07:17.274Z,33.60
2023-03-02T09:09:46.744Z,32.05
2023-03-02T09:12:14.789Z,35.58
2023-03-02T09:14:42.791Z,33.38
2023-03-02T09:17:12.935Z,31.73
2023-03-02T09:19:44.339Z,30.25
2023-03-02T09:22:12.782Z,32.45
2023-03-02T09:24:40.846Z,28.48
2023-03-02T09:27:10.237Z,29.15
2023-03-02T09:29:38.251Z,26.92
2023-03-02T09:32:06.643Z,29.63
2023-03-02T09:34:34.791Z,26.25
2023-03-02T09:37:03.922Z,27.50
2023-03-02T09:39:31.953Z,28.30
2023-03-02T09:42:41.766Z,26.23
2023-03-02T09:45:20.495Z,28.67
2023-03-02T09:47:56.057Z,27.13
2023-03-02T09:50:31.169Z,28.50
2023-03-02T09:53:33.740Z,26.98
2023-03-02T09:56:02.513Z,23.27
2023-03-02T09:58:36.938Z,27.70
2023-03-02T10:01:11.874Z,26.67
2023-03-02T10:03:46.292Z,26.50
2023-03-02T10:06:14.712Z,26.48
2023-03-02T10:08:43.682Z,23.90
2023-03-02T10:11:18.190Z,26.40
2023-03-02T10:13:52.371Z,22.80
2023-03-02T10:16:28.903Z,25.33
2023-03-02T10:19:06.593Z,24.73
2023-03-02T10:21:40.367Z,23.02
2023-03-02T10:24:22.150Z,23.60
2023-03-02T10:26:54.334Z,25.90
2023-03-02T10:29:45.054Z,22.35
2023-03-02T10:32:21.236Z,20.20
2023-03-02T10:34:50.169Z,22.50
2023-03-02T10:37:21.667Z,21.92
2023-03-02T10:39:49.821Z,23.30
2023-03-02T10:42:21.369Z,22.60
2023-03-02T10:44:54.770Z,21.77
2023-03-02T10:47:25.513Z,20.25
2023-03-02T10:49:55.533Z,24.98
2023-03-02T10:52:25.911Z,22.58
2023-03-02T10:55:03.840Z,24.70
2023-03-02T10:57:37.675Z,23.48
2023-03-02T11:00:17.423Z,22.13
2023-03-02T11:02:53.341Z,22.55
2023-03-02T11:05:33.585Z,21.33
2023-03-02T11:08:03.200Z,22.05
2023-03-02T11:10:34.217Z,22.30
2023-03-02T11:13:04.385Z,24.42
2023-03-02T11:15:41.816Z,23.00
2023-03-02T11:18:23.198Z,25.73
2023-03-02T11:20:55.965Z,19.02
2023-03-02T11:23:31.692Z,22.17
2023-03-02T11:26:03.393Z,21.90
2023-03-02T11:28:46.628Z,21.05
2023-03-02T11:31:23.611Z,20.33
2023-03-02T11:34:17.569Z,21.75
2023-03-02T11:36:57.476Z,19.20
2023-03-02T11:39:30.311Z,20.48
2023-03-02T11:41:58.384Z,23.45
2023-03-02T11:44:27.460Z,20.70
2023-03-02T11:47:00.994Z,20.95
2023-03-02T11:49:38.935Z,21.25
2023-03-02T11:52:16.115Z,21.75
2023-03-02T11:54:47.627Z,22.25
2023-03-02T11:57:24.000Z,22.98
2023-03-02T11:59:52.983Z,20.20
2023-03-02T12:02:23.211Z,22.27
2023-03-02T12:05:01.932Z,24.17
2023-03-02T12:07:29.960Z,22.98
2023-03-02T12:10:01.468Z,21.80
2023-03-02T12:12:49.243Z,22.37
2023-03-02T12:15:36.534Z,21.40
2023-03-02T12:18:17.051Z,19.90
2023-03-02T12:20:45.037Z,24.85
2023-03-02T12:23:24.528Z,23.98
2023-03-02T12:26:04.248Z,23.98
2023-03-02T12:28:34.850Z,22.48
2023-03-02T12:31:05.699Z,23.92
2023-03-02T12:33:44.210Z,22.33
2023-03-02T12:36:15.674Z,20.88
2023-03-02T12:38:48.145Z,18.90
2023-03-02T12:41:59.939Z,18.52
2023-03-02T12:44:43.906Z,21.52
2023-03-02T12:47:21.763Z,21.20
2023-03-02T12:49:55.762Z,20.75
2023-03-02T12:52:30.149Z,22.13
2023-03-02T12:55:03.964Z,19.08
2023-03-02T12:57:32.228Z,20.55
2023-03-02T13:00:02.959Z,23.15
2023-03-02T13:02:32.343Z,26.25
2023-03-02T13:05:04.210Z,25.30
2023-03-02T13:07:37.619Z,23.58
2023-03-02T13:10:10.757Z,26.15
2023-03-02T13:12:45.488Z,24.30
2023-03-02T13:15:17.071Z,25.73
2023-03-02T13:17:53.110Z,26.13
2023-03-02T13:20:24.214Z,24.77
2023-03-02T13:22:52.736Z,23.48
2023-03-02T13:25:25.818Z,23.38
2023-03-02T13:27:55.564Z,22.75
2023-03-02T13:30:27.215Z,22.95
2023-03-02T13:33:00.942Z,24.17
2023-03-02T13:35:32.321Z,24.77
2023-03-02T13:38:04.581Z,24.23
2023-03-02T13:43:08.641Z,21.13
2023-03-02T13:45:37.250Z,20.45
2023-03-02T13:48:15.689Z,17.95
2023-03-02T13:50:53.610Z,21.77
2023-03-02T13:53:22.138Z,21.13
2023-03-02T13:55:50.407Z,22.48
2023-03-02T13:58:20.221Z,19.92
2023-03-02T14:00:49.589Z,20.33
2023-03-02T14:03:24.126Z,21.58
2023-03-02T14:05:54.443Z,18.38
2023-03-02T14:08:22.587Z,19.33
2023-03-02T14:10:53.279Z,20.85
2023-03-02T14:13:25.178Z,22.10
2023-03-02T14:15:54.462Z,19.25
2023-03-02T14:18:31.113Z,20.10
2023-03-02T14:21:00.593Z,23.38
2023-03-02T14:23:29.362Z,20.30
2023-03-02T14:25:57.998Z,20.65
2023-03-02T14:28:29.070Z,21.48
2023-03-02T14:30:59.159Z,20.73
2023-03-02T14:33:27.241Z,21.02
2023-03-02T14:35:58.740Z,21.38
2023-03-02T14:38:28.837Z,20.30
2023-03-02T14:40:57.164Z,18.73
2023-03-02T14:43:26.141Z,18.75
2023-03-02T14:45:54.808Z,20.08
2023-03-02T14:48:22.949Z,20.13
2023-03-02T14:50:52.389Z,19.25
2023-03-02T14:53:29.028Z,18.15
2023-03-02T14:55:58.481Z,22.48
2023-03-02T14:58:31.854Z,20.98
2023-03-02T15:00:59.924Z,18.63
2023-03-02T15:03:29.370Z,20.48
2023-03-02T15:06:02.099Z,19.70
2023-03-02T15:08:30.792Z,17.60
2023-03-02T15:11:00.182Z,18.55
2023-03-02T15:13:28.225Z,18.67
2023-03-02T15:15:56.406Z,21.08
2023-03-02T15:18:24.518Z,17.17
2023-03-02T15:20:52.512Z,20.35
2023-03-02T15:23:20.768Z,19.52
2023-03-02T15:25:48.847Z,22.10
2023-03-02T15:28:18.296Z,19.23
2023-03-02T15:30:47.516Z,22.40
2023-03-02T15:33:15.512Z,22.85
2023-03-02T15:35:44.390Z,19.65
2023-03-02T15:38:12.523Z,21.00
2023-03-02T15:40:40.502Z,18.88
2023-03-02T15:43:08.497Z,18.55
2023-03-02T15:45:37.897Z,18.45
2023-03-02T15:48:06.503Z,19.55
2023-03-02T15:50:34.517Z,21.40
2023-03-02T15:53:02.520Z,19.15
2023-03-02T15:55:30.534Z,19.65
2023-03-02T15:57:59.837Z,20.27
2023-03-02T16:00:29.259Z,20.67
2023-03-02T16:02:58.655Z,19.08
2023-03-02T16:05:26.714Z,20.40
2023-03-02T16:07:54.727Z,18.90
2023-03-02T16:10:24.852Z,19.30
2023-03-02T16:12:52.982Z,18.23
2023-03-02T16:15:21.105Z,19.90
2023-03-02T16:17:49.250Z,19.00
2023-03-02T16:20:18.904Z,21.08
2023-03-02T16:22:47.175Z,17.63
2023-03-02T16:25:15.158Z,18.48
2023-03-02T16:27:47.069Z,23.48
2023-03-02T16:30:16.364Z,20.63
2023-03-02T16:32:44.474Z,19.27
2023-03-02T16:35:12.535Z,20.27
2023-03-02T16:37:41.993Z,18.67
2023-03-02T16:40:11.803Z,20.00
2023-03-02T16:42:39.823Z,23.55
2023-03-02T16:45:09.169Z,22.48
2023-03-02T16:47:37.712Z,22.20
2023-03-02T16:50:06.993Z,23.52
2023-03-02T16:52:35.012Z,23.33
2023-03-02T16:55:04.816Z,23.75
2023-03-02T16:57:32.866Z,26.48
2023-03-02T17:00:00.934Z,27.05
2023-03-02T17:02:29.328Z,22.42
2023-03-02T17:04:57.361Z,21.25
2023-03-02T17:07:25.573Z,24.48
2023-03-02T17:09:53.772Z,27.10
2023-03-02T17:12:23.268Z,23.00
2023-03-02T17:14:51.277Z,23.02
2023-03-02T17:17:19.379Z,23.92
2023-03-02T17:19:47.475Z,24.15
2023-03-02T17:22:15.599Z,23.17
2023-03-02T17:24:43.594Z,23.35
2023-03-02T17:27:24.036Z,24.38
2023-03-02T17:29:55.124Z,24.05
2023-03-02T17:32:24.710Z,23.35
2023-03-02T17:34:52.853Z,25.00
2023-03-02T17:37:21.045Z,22.95
2023-03-02T17:39:50.427Z,22.85
2023-03-02T17:42:18.858Z,26.60
2023-03-02T17:44:46.930Z,25.67
2023-03-02T17:47:17.503Z,22.20
2023-03-02T17:49:46.174Z,24.85
2023-03-02T17:52:14.587Z,27.27
2023-03-02T17:54:42.760Z,22.98
2023-03-02T17:57:11.523Z,23.98
2023-03-02T17:59:39.607Z,25.58
2023-03-02T18:02:07.634Z,27.60
2023-03-02T18:04:36.998Z,26.58
2023-03-02T18:07:04.990Z,26.00
2023-03-02T18:09:32.996Z,25.20
2023-03-02T18:12:02.605Z,27.35
2023-03-02T18:14:31.208Z,27.20
2023-03-02T18:16:59.465Z,30.25
2023-03-02T18:19:27.547Z,29.10
2023-03-02T18:21:58.219Z,30.30
2023-03-02T18:24:26.478Z,30.98
2023-03-02T18:26:54.729Z,25.30
2023-03-02T18:29:23.968Z,26.90
2023-03-02T18:31:53.329Z,27.60
2023-03-02T18:34:21.708Z,30.58
2023-03-02T18:36:50.134Z,28.52
2023-03-02T18:39:19.831Z,32.55
2023-03-02T18:41:47.899Z,34.20
2023-03-02T18:44:16.077Z,31.63
2023-03-02T18:46:44.231Z,30.70
2023-03-02T18:49:12.398Z,35.28
2023-03-02T18:51:40.463Z,35.80
2023-03-02T18:54:08.585Z,37.03
2023-03-02T18:56:40.519Z,34.00
2023-03-02T18:59:09.916Z,33.70
2023-03-02T19:01:38.240Z,30.05
2023-03-02T19:04:07.046Z,35.92
2023-03-02T19:06:35.246Z,36.78
2023-03-02T19:09:03.584Z,34.97
2023-03-02T19:11:31.661Z,31.67
2023-03-02T19:14:02.585Z,35.60
2023-03-02T19:16:30.713Z,32.13
2023-03-02T19:18:58.841Z,35.90
2023-03-02T19:21:27.033Z,31.52
2023-03-02T19:23:55.304Z,31.80
2023-03-02T19:26:23.533Z,33.20
2023-03-02T19:28:51.679Z,31.05
2023-03-02T19:31:21.591Z,29.10
2023-03-02T19:33:49.541Z,27.63
2023-03-02T19:36:17.562Z,29.70
2023-03-02T19:38:45.624Z,26.58
2023-03-02T19:41:15.264Z,28.70
2023-03-02T19:43:45.358Z,26.98
2023-03-02T19:46:14.375Z,28.77
2023-03-02T19:48:44.232Z,28.27
2023-03-02T19:51:13.583Z,27.38
2023-03-02T19:53:42.503Z,27.13
2023-03-02T19:56:14.313Z,30.73
2023-03-02T19:58:47.585Z,25.00
2023-03-02T20:01:21.612Z,28.33
2023-03-02T20:03:52.730Z,25.08
2023-03-02T20:06:21.292Z,25.15
2023-03-02T20:08:49.437Z,24.02
2023-03-02T20:11:18.379Z,23.05
2023-03-02T20:13:46.523Z,26.98
2023-03-02T20:16:19.498Z,25.13
2023-03-02T20:18:47.542Z,25.60
2023-03-02T20:21:19.732Z,24.70
2023-03-02T20:23:49.983Z,26.48
2023-03-02T20:26:18.352Z,26.33
2023-03-02T20:28:46.677Z,26.23
2023-03-02T20:31:16.160Z,25.25
2023-03-02T20:33:47.651Z,26.50
2023-03-02T20:36:23.317Z,28.10
2023-03-02T20:38:55.258Z,25.60
2023-03-02T20:41:23.693Z,24.38
2023-03-02T20:43:51.936Z,24.58
2023-03-02T20:46:24.134Z,24.42
2023-03-02T20:48:52.655Z,25.52
2023-03-02T20:51:22.835Z,25.92
2023-03-02T20:53:51.181Z,26.02
2023-03-02T20:56:19.745Z,24.80
2023-03-02T20:58:48.843Z,24.15
2023-03-02T21:01:18.116Z,25.38
2023-03-02T21:03:46.251Z,25.45
2023-03-02T21:06:15.198Z,27.00
2023-03-02T21:08:45.879Z,26.58
2023-03-02T21:11:17.871Z,24.58
2023-03-02T21:13:47.988Z,24.42
2023-03-02T21:16:19.193Z,25.88
2023-03-02T21:18:47.252Z,28.92
2023-03-02T21:21:15.697Z,28.35
2023-03-02T21:23:45.086Z,25.98
2023-03-02T21:26:13.420Z,25.95
2023-03-02T21:28:44.057Z,24.10
2023-03-02T21:31:13.219Z,26.17
2023-03-02T21:33:41.619Z,26.75
2023-03-02T21:36:14.777Z,27.05
2023-03-02T21:38:44.840Z,27.30
2023-03-02T21:41:12.896Z,26.88
2023-03-02T21:43:40.954Z,25.83
2023-03-02T21:46:09.011Z,25.42
2023-03-02T21:48:37.134Z,26.33
2023-03-02T21:51:05.584Z,27.88
2023-03-02T21:53:33.601Z,26.10
2023-03-02T21:56:03.025Z,27.10
2023-03-02T21:58:31.090Z,26.23
2023-03-02T22:00:59.184Z,24.38
2023-03-02T22:03:27.613Z,25.20
2023-03-02T22:05:55.704Z,25.30
2023-03-02T22:08:23.731Z,24.90
2023-03-02T22:10:52.820Z,24.83
2023-03-02T22:13:24.681Z,24.30
2023-03-02T22:15:58.820Z,21.75
2023-03-02T22:18:27.780Z,24.73
2023-03-02T22:20:55.778Z,20.58
2023-03-02T22:23:26.243Z,20.92
2023-03-02T22:25:55.998Z,23.27
2023-03-02T22:28:27.914Z,23.88
2023-03-02T22:30:59.755Z,22.83
2023-03-02T22:33:29.790Z,19.98
2023-03-02T22:36:02.775Z,21.77
2023-03-02T22:38:32.196Z,21.42
2023-03-02T22:41:00.171Z,19.15
2023-03-02T22:43:31.100Z,23.35
2023-03-02T22:46:00.672Z,21.70
2023-03-02T22:48:30.757Z,21.02
2023-03-02T22:50:58.774Z,22.88
2023-03-02T22:53:30.051Z,26.02
2023-03-02T22:55:59.964Z,20.40
2023-03-02T22:58:43.746Z,22.30
2023-03-02T23:01:38.105Z,21.73
2023-03-02T23:04:16.187Z,23.35
2023-03-02T23:06:46.452Z,21.70
2023-03-02T23:09:17.606Z,21.83
2023-03-02T23:11:46.419Z,26.35
2023-03-02T23:14:22.199Z,23.65
2023-03-02T23:16:54.671Z,25.02
2023-03-02T23:19:22.914Z,28.15
2023-03-02T23:21:51.503Z,26.60
2023-03-02T23:24:21.959Z,26.65
2023-03-02T23:26:51.999Z,25.83
2023-03-02T23:29:22.384Z,25.25
2023-03-02T23:31:50.892Z,24.92
2023-03-02T23:34:19.442Z,27.23
2023-03-02T23:36:47.568Z,26.20
2023-03-02T23:39:15.794Z,27.42
2023-03-02T23:41:43.905Z,27.85
2023-03-02T23:44:11.897Z,29.20
2023-03-02T23:46:41.415Z,32.03
2023-03-02T23:49:09.452Z,30.60
2023-03-02T23:51:37.447Z,31.15
2023-03-02T23:54:05.942Z,31.95
2023-03-02T23:56:34.020Z,29.92
2023-03-02T23:59:02.173Z,32.03
